TNCC

Curaçao

Airport
ICAO code
TNCC
Summary
ICAO Region
CARSAM
ICAO Territory
Location

Willemstad, Curaçao, Netherlands Antilles,

Coordinates
12° 11' 20" N , 68° 57' 35" W
KCC
Aw
Airport WX
Tropical Revolving Storm
Metar
Observation
TNCC 102100Z 12007KT 9999 FEW020 SCT035 26/23 Q1011 NOSIG=
Station
Hato Airport, Curacao
Date/Time
2022-08-10 21:00:00
Wind direction
120°
Wind speed
07 kts
Lowest cloud amount
few clouds
Temperature
26°C
Dew point
23°C
Humidity
83%
QNH
1011 hPa
Weather condition
n/a

Description

Hato International Airport or Curaçao International Airport (originally named Dr. Albert Plesman International Airport) is the airport of Willemstad, Curaçao, Netherlands Antilles. It services to the Caribbean region, South America, North America and Europe.

Climatology

Tropical Savanna climate (Köppen climate classification Aw), rarely affected directly by tropical storms as it is on the southern fringe of the Atlantic/Caribbean Hurricane Belt.

Runways

Designator Length Width Surface Rops
11/29 3410 60 ASP Yes/Yes

Airport map

Aerial View

SKYbrary Partners:

Safety knowledge contributed by: